Wyoming, Delaware
Current Conditions -  °F | °C
As of 6:58 PM on Friday 28 Nov 2014 (Local Time) from KDOV Reporting Station
Clear Clear  
Wind Chill: 32°   Ceiling: Unl
Heat Index: 32°   Visibility: 10mi
Dew Point: 17°   Wind: 3mph
Humidity: 54%   Direction: 270°W
Pressure: 30.26"   Gusts: NA
Location:  39.0852°N, 75.6325°W
Report Text: KDOV 282358Z AUTO 27003KT 10SM CLR 00/M08 A3026 RMK AO2 SLP251 T10001084 10041 21006 52008
Loading
Personal Weather Stations






























Interactive Weather Map New forecast layout! Learn more

10-Day Weather Forecast

Advertisements
Track Severe Weather on mobile